الصفحة الرئيسية
METAR-TAF:

METAR-TAF

مطار :

Needles Airport

نيدليس, كاليفورنيا, الولايات المتحدة

دائرة عرض: 34-45-58N, خط طول: 114-37-24W, ارتفاع: 300 متر

مراقبة الطقس الحالي

تاريخ ووقت الإصدار 1ساعة و 5 دقيقة قبل الساعة 08:56UTC
ريح 8 عقدة من الشمال الغربي
درجة الحرارة 28°درجة مئوية
الرطوبة 10%
ضغط 1015 hPa
الرؤية: 16.1 كم
سماء صافية

METAR: KEED 290856Z AUTO 32008KT 10SM CLR 28/M07 A2997 RMK AO2 SLP116 T02831067 53003

زمن: 03:01 (10:01 UTC)

توقعات

تاريخ ووقت الإصدار 4ساعات و 25 دقيقة قبل الساعة 05:36UTC
التوقعات صالحة من29 الساعة 06 UTC إلى 30 الساعة 06 UTC
ريح 8 عقدة من الشمال الغربي
الرؤية: 10 كم
سماء صافية
من 29 الساعة 1800 UTC
ريح 6 عقدة من الشمال
الرؤية: 10 كم
سماء صافية
من 30 الساعة 0200 UTC
ريح 5 عقدةمن اتجاهات متغيرة
الرؤية: 10 كم
سماء صافية

TAF: KEED 290536Z 2906/3006 32008KT P6SM SKC FM291800 35006KT P6SM SKC FM300200 VRB05KT P6SM SKC

أرصاد الطقس والتوقعات من أكثر من 4000 مطار (تقارير الطقس للمطار METAR والتنبؤ بالطقس بالمطارTAF).

المحطات المتاحة هي النقط الصفراء والحمراء على الخريطة.

حرك المؤشر فوق النقطة لمعرفة اسم المحطة.

ثم انقر لمعرفة أرصاد وتوقعات الطقس.

لتغيير الخارطة: اضغط على الأزرار الخضراء مع رمز الصليب الأسود للتكبير. على الزر الأخضر مع شرطة للتصغير، أو على الأسهم الخضراء للخرائط المجاورة.


METAR-TAF: